createdAt,value
2019-06-01T00:00:16.431Z,78.75
2019-06-01T00:02:54.372Z,78.85
2019-06-01T00:05:18.709Z,78.92
2019-06-01T00:07:49.433Z,79.02
2019-06-01T00:10:19.026Z,79.10
2019-06-01T00:12:49.536Z,79.22
2019-06-01T00:15:19.227Z,79.37
2019-06-01T00:17:49.972Z,79.51
2019-06-01T00:20:19.585Z,79.59
2019-06-01T00:22:49.507Z,79.78
2019-06-01T00:25:19.009Z,79.95
2019-06-01T00:27:48.845Z,80.06
2019-06-01T00:30:27.181Z,80.15
2019-06-01T00:32:49.750Z,80.26
2019-06-01T00:35:19.266Z,80.34
2019-06-01T00:37:50.185Z,80.44
2019-06-01T00:40:19.882Z,80.58
2019-06-01T00:42:50.266Z,80.72
2019-06-01T00:45:21.160Z,80.87
2019-06-01T00:47:50.936Z,81.00
2019-06-01T00:50:20.379Z,81.09
2019-06-01T00:52:51.306Z,81.22
2019-06-01T00:55:21.008Z,81.32
2019-06-01T00:57:51.827Z,81.46
2019-06-01T01:00:22.612Z,81.57
2019-06-01T01:02:52.255Z,81.65
2019-06-01T01:05:22.497Z,81.73
2019-06-01T01:07:53.371Z,81.80
2019-06-01T01:10:23.189Z,81.90
2019-06-01T01:13:04.303Z,82.02
2019-06-01T01:15:34.535Z,82.17
2019-06-01T01:18:05.353Z,82.31
2019-06-01T01:20:36.888Z,82.41
2019-06-01T01:23:08.125Z,82.46
2019-06-01T01:25:37.699Z,82.50
2019-06-01T01:28:07.258Z,82.58
2019-06-01T01:30:36.772Z,82.67
2019-06-01T01:33:06.279Z,82.72
2019-06-01T01:35:35.791Z,82.83
2019-06-01T01:38:05.422Z,82.86
2019-06-01T01:40:34.987Z,82.95
2019-06-01T01:43:05.069Z,83.01
2019-06-01T01:45:34.944Z,83.13
2019-06-01T01:48:04.650Z,83.29
2019-06-01T01:50:34.181Z,83.38
2019-06-01T01:53:03.670Z,83.48
2019-06-01T01:55:33.118Z,83.48
2019-06-01T01:58:02.579Z,83.55
2019-06-01T02:00:37.958Z,83.68
2019-06-01T02:03:08.354Z,83.80
2019-06-01T02:05:38.084Z,83.93
2019-06-01T02:08:08.117Z,84.03
2019-06-01T02:10:37.963Z,84.16
2019-06-01T02:13:08.008Z,84.22
2019-06-01T02:15:39.780Z,84.29
2019-06-01T02:18:09.375Z,84.41
2019-06-01T02:20:39.008Z,84.51
2019-06-01T02:23:09.010Z,84.55
2019-06-01T02:25:38.640Z,84.60
2019-06-01T02:28:09.186Z,84.67
2019-06-01T02:30:38.708Z,84.69
2019-06-01T02:33:08.204Z,84.75
2019-06-01T02:35:37.724Z,84.76
2019-06-01T02:38:07.195Z,84.75
2019-06-01T02:40:37.116Z,84.74
2019-06-01T02:43:07.378Z,84.74
2019-06-01T02:45:37.047Z,84.78
2019-06-01T02:48:07.073Z,84.80
2019-06-01T02:50:36.691Z,84.78
2019-06-01T02:53:06.358Z,84.78
2019-06-01T02:55:35.855Z,84.82
2019-06-01T02:58:06.680Z,84.84
2019-06-01T03:00:48.511Z,84.81
2019-06-01T03:03:18.621Z,84.77
2019-06-01T03:05:50.801Z,84.66
2019-06-01T03:08:20.802Z,84.64
2019-06-01T03:10:52.495Z,84.70
2019-06-01T03:13:25.099Z,84.68
2019-06-01T03:15:58.806Z,84.67
2019-06-01T03:18:31.347Z,84.66
2019-06-01T03:21:04.702Z,84.60
2019-06-01T03:23:35.829Z,84.60
2019-06-01T03:26:08.710Z,84.54
2019-06-01T03:28:41.224Z,84.49
2019-06-01T03:31:10.843Z,84.43
2019-06-01T03:33:40.378Z,84.39
2019-06-01T03:36:09.909Z,84.42
2019-06-01T03:38:39.543Z,84.31
2019-06-01T03:41:09.030Z,84.22
2019-06-01T03:43:38.540Z,84.17
2019-06-01T03:46:08.765Z,84.12
2019-06-01T03:48:38.395Z,84.03
2019-06-01T03:51:08.286Z,83.97
2019-06-01T03:53:38.264Z,84.00
2019-06-01T03:56:09.014Z,83.87
2019-06-01T03:58:38.762Z,83.74
2019-06-01T04:01:09.161Z,83.68
2019-06-01T04:03:39.106Z,83.58
2019-06-01T04:06:09.441Z,83.48
2019-06-01T04:08:39.107Z,83.45
2019-06-01T04:11:09.782Z,83.35
2019-06-01T04:13:39.432Z,83.19
2019-06-01T04:16:10.019Z,82.95
2019-06-01T04:18:39.553Z,82.87
2019-06-01T04:21:10.200Z,82.62
2019-06-01T04:23:39.868Z,82.40
2019-06-01T04:26:10.318Z,82.11
2019-06-01T04:28:40.058Z,81.74
2019-06-01T04:31:10.811Z,81.52
2019-06-01T04:33:40.536Z,81.12
2019-06-01T04:36:10.962Z,80.78
2019-06-01T04:38:40.590Z,80.50
2019-06-01T04:41:10.041Z,80.33
2019-06-01T04:43:40.609Z,80.15
2019-06-01T04:46:10.375Z,79.95
2019-06-01T04:48:39.938Z,79.66
2019-06-01T04:51:11.375Z,79.44
2019-06-01T04:53:40.586Z,79.24
2019-06-01T04:56:11.133Z,79.12
2019-06-01T04:58:40.722Z,78.87
2019-06-01T05:01:10.933Z,78.63
2019-06-01T05:03:40.500Z,78.33
2019-06-01T05:06:11.251Z,78.11
2019-06-01T05:08:40.860Z,77.90
2019-06-01T05:11:11.738Z,77.58
2019-06-01T05:13:41.352Z,77.51
2019-06-01T05:16:12.939Z,77.28
2019-06-01T05:18:42.008Z,76.96
2019-06-01T05:21:12.893Z,76.32
2019-06-01T05:23:42.692Z,75.80
2019-06-01T05:26:13.104Z,75.54
2019-06-01T05:28:43.149Z,74.99
2019-06-01T05:31:19.903Z,74.86
2019-06-01T05:33:43.832Z,74.58
2019-06-01T05:36:14.273Z,74.31
2019-06-01T05:38:44.279Z,74.15
2019-06-01T05:41:14.929Z,74.11
2019-06-01T05:43:44.510Z,74.13
2019-06-01T05:46:14.121Z,73.91
2019-06-01T05:48:43.567Z,73.63
2019-06-01T05:51:15.569Z,73.72
2019-06-01T05:53:44.230Z,73.33
2019-06-01T05:56:14.763Z,73.20
2019-06-01T05:58:44.365Z,72.69
2019-06-01T06:01:14.714Z,72.75
2019-06-01T06:03:44.442Z,72.18
2019-06-01T06:06:13.902Z,71.77
2019-06-01T06:08:43.492Z,71.59
2019-06-01T06:11:12.998Z,71.52
2019-06-01T06:13:42.453Z,71.38
2019-06-01T06:16:11.936Z,71.05
2019-06-01T06:18:41.386Z,70.89
2019-06-01T06:21:11.912Z,70.37
2019-06-01T06:23:42.423Z,70.01
2019-06-01T06:26:11.896Z,70.13
2019-06-01T06:28:41.429Z,70.56
2019-06-01T06:31:10.875Z,69.65
2019-06-01T06:33:55.599Z,69.63
2019-06-01T06:36:11.819Z,69.63
2019-06-01T06:38:41.276Z,69.43
2019-06-01T06:41:11.058Z,69.00
2019-06-01T06:43:40.563Z,68.53
2019-06-01T06:46:10.016Z,68.49
2019-06-01T06:48:39.750Z,67.90
2019-06-01T06:51:09.192Z,67.77
2019-06-01T06:53:38.710Z,67.12
2019-06-01T06:56:08.171Z,67.25
2019-06-01T06:58:37.633Z,66.95
2019-06-01T07:01:07.161Z,67.05
2019-06-01T07:03:36.618Z,66.70
2019-06-01T07:06:06.104Z,66.68
2019-06-01T07:08:35.639Z,66.09
2019-06-01T07:11:05.143Z,66.21
2019-06-01T07:13:34.598Z,66.16
2019-06-01T07:16:04.208Z,65.72
2019-06-01T07:18:33.667Z,65.23
2019-06-01T07:21:04.381Z,65.42
2019-06-01T07:23:33.871Z,65.24
2019-06-01T07:26:03.309Z,64.76
2019-06-01T07:28:32.804Z,64.44
2019-06-01T07:31:02.691Z,63.08
2019-06-01T07:33:32.753Z,63.25
2019-06-01T07:36:03.458Z,61.94
2019-06-01T07:38:33.264Z,61.97
2019-06-01T07:41:03.065Z,60.99
2019-06-01T07:43:33.264Z,60.87
2019-06-01T07:46:02.935Z,61.09
2019-06-01T07:48:33.470Z,60.75
2019-06-01T07:51:03.058Z,60.35
2019-06-01T07:53:32.556Z,59.11
2019-06-01T07:56:02.011Z,58.83
2019-06-01T07:58:32.841Z,59.19
2019-06-01T08:01:02.374Z,59.41
2019-06-01T08:03:35.027Z,59.57
2019-06-01T08:06:04.283Z,59.04
2019-06-01T08:08:33.795Z,58.85
2019-06-01T08:11:03.240Z,58.05
2019-06-01T08:13:35.539Z,57.73
2019-06-01T08:16:03.966Z,57.46
2019-06-01T08:18:33.465Z,57.71
2019-06-01T08:21:02.912Z,57.42
2019-06-01T08:23:33.599Z,57.52
2019-06-01T08:26:03.406Z,57.36
2019-06-01T08:28:32.900Z,57.42
2019-06-01T08:31:02.789Z,57.30
2019-06-01T08:33:34.809Z,57.04
2019-06-01T08:36:04.908Z,56.65
2019-06-01T08:38:34.404Z,55.80
2019-06-01T08:41:04.930Z,56.01
2019-06-01T08:43:34.492Z,56.53
2019-06-01T08:46:04.475Z,55.53
2019-06-01T08:48:34.164Z,54.90
2019-06-01T08:51:03.657Z,54.84
2019-06-01T08:53:34.212Z,54.94
2019-06-01T08:56:05.332Z,54.69
2019-06-01T08:58:34.900Z,53.78
2019-06-01T09:01:04.412Z,54.62
2019-06-01T09:03:36.594Z,54.26
2019-06-01T09:06:05.453Z,53.01
2019-06-01T09:08:36.124Z,53.06
2019-06-01T09:11:05.558Z,53.55
2019-06-01T09:13:35.475Z,52.19
2019-06-01T09:16:05.643Z,52.55
2019-06-01T09:18:35.828Z,52.49
2019-06-01T09:21:05.566Z,52.19
2019-06-01T09:23:37.143Z,52.08
2019-06-01T09:26:06.649Z,51.91
2019-06-01T09:28:36.363Z,52.00
2019-06-01T09:31:05.856Z,52.03
2019-06-01T09:33:36.856Z,51.49
2019-06-01T09:36:07.461Z,51.49
2019-06-01T09:38:37.875Z,51.87
2019-06-01T09:41:07.529Z,50.90
2019-06-01T09:43:37.251Z,50.94
2019-06-01T09:46:06.845Z,50.54
2019-06-01T09:48:37.740Z,51.03
2019-06-01T09:51:07.390Z,51.44
2019-06-01T09:53:38.063Z,50.68
2019-06-01T09:56:08.081Z,50.68
2019-06-01T09:58:38.871Z,50.89
2019-06-01T10:01:08.632Z,50.35
2019-06-01T10:03:38.599Z,49.76
2019-06-01T10:06:08.174Z,50.55
2019-06-01T10:08:38.179Z,50.20
2019-06-01T10:11:07.669Z,50.54
2019-06-01T10:13:38.418Z,49.98
2019-06-01T10:16:08.420Z,49.79
2019-06-01T10:18:38.961Z,49.52
2019-06-01T10:21:09.994Z,49.57
2019-06-01T10:23:39.586Z,48.70
2019-06-01T10:26:09.275Z,49.11
2019-06-01T10:28:39.799Z,48.28
2019-06-01T10:31:09.348Z,47.76
2019-06-01T10:33:39.067Z,48.20
2019-06-01T10:36:19.955Z,47.49
2019-06-01T10:38:41.387Z,48.05
2019-06-01T10:41:11.380Z,48.65
2019-06-01T10:43:41.779Z,48.31
2019-06-01T10:46:11.260Z,48.25
2019-06-01T10:48:42.190Z,48.07
2019-06-01T10:51:11.851Z,48.45
2019-06-01T10:53:43.637Z,47.67
2019-06-01T10:56:13.229Z,47.87
2019-06-01T10:58:58.801Z,47.98
2019-06-01T11:01:13.902Z,47.11
2019-06-01T11:03:43.684Z,47.76
2019-06-01T11:06:13.242Z,46.72
2019-06-01T11:08:43.143Z,46.50
2019-06-01T11:11:13.157Z,47.16
2019-06-01T11:13:43.280Z,46.66
2019-06-01T11:16:13.018Z,46.11
2019-06-01T11:18:43.604Z,46.83
2019-06-01T11:21:13.278Z,47.07
2019-06-01T11:23:46.502Z,46.55
2019-06-01T11:26:15.290Z,46.38
2019-06-01T11:28:44.761Z,46.62
2019-06-01T11:31:14.240Z,45.92
2019-06-01T11:33:44.287Z,45.94
2019-06-01T11:36:14.215Z,46.22
2019-06-01T11:38:44.959Z,46.66
2019-06-01T11:41:18.479Z,46.65
2019-06-01T11:43:48.844Z,46.28
2019-06-01T11:46:20.462Z,47.04
2019-06-01T11:48:49.957Z,45.89
2019-06-01T11:51:19.440Z,46.82
2019-06-01T11:53:49.006Z,45.46
2019-06-01T11:56:18.454Z,44.80
2019-06-01T11:58:47.984Z,45.11
2019-06-01T12:01:17.468Z,45.91
2019-06-01T12:03:48.025Z,46.29
2019-06-01T12:06:17.838Z,46.05
2019-06-01T12:08:48.067Z,44.83
2019-06-01T12:11:18.000Z,45.28
2019-06-01T12:13:47.445Z,44.88
2019-06-01T12:16:17.024Z,45.18
2019-06-01T12:18:46.929Z,45.43
2019-06-01T12:21:16.555Z,44.36
2019-06-01T12:23:47.586Z,43.31
2019-06-01T12:26:17.603Z,42.43
2019-06-01T12:28:47.897Z,42.75
2019-06-01T12:31:19.107Z,43.17
2019-06-01T12:33:48.792Z,43.71
2019-06-01T12:36:18.499Z,43.73
2019-06-01T12:38:52.246Z,43.36
2019-06-01T12:41:23.227Z,44.04
2019-06-01T12:44:10.275Z,42.08
2019-06-01T12:46:39.963Z,42.90
2019-06-01T12:49:09.523Z,43.22
2019-06-01T12:51:40.413Z,43.34
2019-06-01T12:54:10.094Z,43.24
2019-06-01T12:56:40.708Z,42.54
2019-06-01T12:59:11.254Z,41.84
2019-06-01T13:01:41.115Z,42.40
2019-06-01T13:04:11.608Z,42.06
2019-06-01T13:06:41.075Z,41.54
2019-06-01T13:09:10.656Z,42.17
2019-06-01T13:11:41.324Z,41.33
2019-06-01T13:14:11.880Z,40.70
2019-06-01T13:16:46.345Z,41.46
2019-06-01T13:19:12.556Z,42.60
2019-06-01T13:21:43.191Z,42.78
2019-06-01T13:24:12.756Z,42.18
2019-06-01T13:26:43.626Z,41.63
2019-06-01T13:29:13.264Z,41.28
2019-06-01T13:31:44.067Z,42.25
2019-06-01T13:34:13.960Z,42.34
2019-06-01T13:36:44.586Z,42.03
2019-06-01T13:39:14.475Z,41.92
2019-06-01T13:41:45.036Z,42.18
2019-06-01T13:44:14.579Z,41.03
2019-06-01T13:46:45.193Z,41.55
2019-06-01T13:49:14.859Z,41.15
2019-06-01T13:51:45.895Z,41.36
2019-06-01T13:54:15.505Z,41.84
2019-06-01T13:56:44.936Z,41.75
2019-06-01T13:59:14.422Z,42.24
2019-06-01T14:01:45.055Z,41.46
2019-06-01T14:04:14.724Z,41.92
2019-06-01T14:06:46.908Z,42.40
2019-06-01T14:09:17.014Z,42.56
2019-06-01T14:11:47.390Z,42.46
2019-06-01T14:14:16.926Z,42.58
2019-06-01T14:16:47.517Z,42.18
2019-06-01T14:19:17.203Z,42.02
2019-06-01T14:21:47.804Z,42.09
2019-06-01T14:24:17.386Z,42.17
2019-06-01T14:26:48.119Z,42.30
2019-06-01T14:29:17.821Z,41.01
2019-06-01T14:31:48.431Z,41.30
2019-06-01T14:34:18.050Z,41.19
2019-06-01T14:36:48.566Z,40.98
2019-06-01T14:39:18.223Z,40.46
2019-06-01T14:41:48.906Z,40.67
2019-06-01T14:44:18.531Z,41.25
2019-06-01T14:46:54.983Z,41.12
2019-06-01T14:49:19.140Z,40.49
2019-06-01T14:51:49.743Z,40.27
2019-06-01T14:54:19.478Z,40.27
2019-06-01T14:56:49.722Z,40.77
2019-06-01T14:59:19.270Z,40.32
2019-06-01T15:01:49.937Z,39.70
2019-06-01T15:04:19.562Z,39.96
2019-06-01T15:06:50.110Z,40.21
2019-06-01T15:09:20.171Z,40.81
2019-06-01T15:11:50.593Z,40.13
2019-06-01T15:14:20.487Z,39.67
2019-06-01T15:16:51.706Z,39.72
2019-06-01T15:19:21.428Z,39.73
2019-06-01T15:21:52.118Z,39.95
2019-06-01T15:24:21.630Z,39.86
2019-06-01T15:26:52.299Z,39.60
2019-06-01T15:29:21.971Z,39.48
2019-06-01T15:31:51.463Z,39.51
2019-06-01T15:34:21.008Z,39.86
2019-06-01T15:36:51.585Z,39.67
2019-06-01T15:39:25.237Z,39.61
2019-06-01T15:41:53.010Z,40.09
2019-06-01T15:44:22.603Z,40.02
2019-06-01T15:46:53.519Z,40.25
2019-06-01T15:49:23.324Z,40.31
2019-06-01T15:51:53.666Z,40.73
2019-06-01T15:54:23.247Z,40.64
2019-06-01T15:56:52.745Z,40.52
2019-06-01T15:59:22.353Z,40.87
2019-06-01T16:01:53.004Z,40.87
2019-06-01T16:04:22.677Z,40.33
2019-06-01T16:06:53.033Z,40.69
2019-06-01T16:09:39.210Z,41.12
2019-06-01T16:11:55.487Z,40.50
2019-06-01T16:14:25.330Z,40.44
2019-06-01T16:16:57.726Z,40.49
2019-06-01T16:19:27.709Z,40.95
2019-06-01T16:21:58.088Z,41.42
2019-06-01T16:24:27.731Z,41.16
2019-06-01T16:26:58.205Z,40.92
2019-06-01T16:29:27.842Z,40.17
2019-06-01T16:31:58.684Z,39.13
2019-06-01T16:34:28.545Z,39.02
2019-06-01T16:36:58.866Z,38.76
2019-06-01T16:39:28.513Z,39.17
2019-06-01T16:41:59.787Z,38.63
2019-06-01T16:44:29.336Z,37.30
2019-06-01T16:46:59.638Z,36.16
2019-06-01T16:49:29.430Z,35.73
2019-06-01T16:52:01.148Z,35.20
2019-06-01T16:54:30.671Z,34.49
2019-06-01T16:57:00.110Z,33.49
2019-06-01T16:59:29.602Z,32.48
2019-06-01T17:02:03.201Z,31.01
2019-06-01T17:04:33.101Z,29.24
2019-06-01T17:07:05.676Z,28.21
2019-06-01T17:09:34.329Z,28.26
2019-06-01T17:12:05.133Z,29.72
2019-06-01T17:14:34.865Z,30.83
2019-06-01T17:17:05.223Z,30.41
2019-06-01T17:19:34.863Z,31.45
2019-06-01T17:22:05.605Z,32.25
2019-06-01T17:24:36.127Z,32.74
2019-06-01T17:27:06.012Z,33.53
2019-06-01T17:29:35.598Z,33.97
2019-06-01T17:32:21.528Z,34.55
2019-06-01T17:34:36.435Z,35.52
2019-06-01T17:37:06.850Z,36.19
2019-06-01T17:39:36.440Z,36.63
2019-06-01T17:42:06.497Z,37.51
2019-06-01T17:44:36.128Z,38.03
2019-06-01T17:47:06.316Z,38.31
2019-06-01T17:49:35.780Z,38.85
2019-06-01T17:52:05.949Z,39.40
2019-06-01T17:54:35.895Z,39.86
2019-06-01T17:57:05.485Z,40.03
2019-06-01T17:59:35.011Z,40.44
2019-06-01T18:02:05.775Z,40.89
2019-06-01T18:04:35.538Z,41.12
2019-06-01T18:07:05.753Z,41.58
2019-06-01T18:09:35.384Z,41.96
2019-06-01T18:12:06.081Z,42.19
2019-06-01T18:14:35.583Z,42.53
2019-06-01T18:17:06.149Z,42.91
2019-06-01T18:19:35.720Z,43.27
2019-06-01T18:22:06.700Z,43.54
2019-06-01T18:24:36.181Z,43.96
2019-06-01T18:27:06.927Z,44.20
2019-06-01T18:29:39.005Z,44.40
2019-06-01T18:32:07.795Z,44.22
2019-06-01T18:34:37.318Z,44.37
2019-06-01T18:37:07.453Z,44.67
2019-06-01T18:39:38.134Z,45.15
2019-06-01T18:42:08.294Z,45.26
2019-06-01T18:44:38.215Z,45.22
2019-06-01T18:47:07.883Z,45.51
2019-06-01T18:49:37.427Z,45.61
2019-06-01T18:52:07.160Z,45.59
2019-06-01T18:54:36.705Z,45.77
2019-06-01T18:57:10.944Z,45.97
2019-06-01T18:59:37.653Z,45.87
2019-06-01T19:02:08.383Z,46.16
2019-06-01T19:04:37.968Z,46.12
2019-06-01T19:07:07.488Z,46.42
2019-06-01T19:09:36.967Z,46.64
2019-06-01T19:12:06.758Z,46.69
2019-06-01T19:14:37.831Z,47.01
2019-06-01T19:17:08.267Z,47.43
2019-06-01T19:19:37.929Z,47.80
2019-06-01T19:22:08.421Z,48.20
2019-06-01T19:24:38.349Z,48.46
2019-06-01T19:27:08.672Z,48.64
2019-06-01T19:29:38.238Z,48.97
2019-06-01T19:32:08.794Z,49.30
2019-06-01T19:34:38.440Z,49.46
2019-06-01T19:37:08.941Z,49.58
2019-06-01T19:39:39.617Z,50.06
2019-06-01T19:42:09.390Z,50.40
2019-06-01T19:44:38.986Z,50.48
2019-06-01T19:47:09.740Z,51.12
2019-06-01T19:49:43.733Z,51.45
2019-06-01T19:52:12.710Z,51.40
2019-06-01T19:54:44.152Z,52.04
2019-06-01T19:57:18.397Z,52.21
2019-06-01T19:59:45.094Z,52.33
2019-06-01T20:02:28.316Z,52.82
2019-06-01T20:04:45.829Z,53.20
2019-06-01T20:07:15.272Z,53.36
2019-06-01T20:09:44.822Z,53.80
2019-06-01T20:12:16.617Z,54.00
2019-06-01T20:14:45.597Z,54.24
2019-06-01T20:17:15.704Z,54.37
2019-06-01T20:19:45.372Z,54.58
2019-06-01T20:22:15.176Z,54.64
2019-06-01T20:24:44.998Z,54.81
2019-06-01T20:27:15.304Z,55.26
2019-06-01T20:29:44.854Z,55.72
2019-06-01T20:32:15.800Z,55.96
2019-06-01T20:34:45.379Z,55.99
2019-06-01T20:37:15.903Z,56.28
2019-06-01T20:39:45.393Z,56.61
2019-06-01T20:42:23.331Z,56.72
2019-06-01T20:44:46.162Z,56.92
2019-06-01T20:47:18.686Z,56.99
2019-06-01T20:49:48.724Z,57.27
2019-06-01T20:52:19.126Z,57.45
2019-06-01T20:54:48.828Z,57.69
2019-06-01T20:57:19.631Z,57.93
2019-06-01T20:59:49.151Z,58.17
2019-06-01T21:02:19.857Z,58.57
2019-06-01T21:04:49.805Z,58.75
2019-06-01T21:07:19.915Z,58.99
2019-06-01T21:09:49.616Z,59.00
2019-06-01T21:12:20.179Z,59.41
2019-06-01T21:14:49.917Z,59.50
2019-06-01T21:17:22.724Z,59.76
2019-06-01T21:19:52.346Z,59.91
2019-06-01T21:22:22.695Z,60.12
2019-06-01T21:24:52.609Z,60.27
2019-06-01T21:27:22.703Z,60.36
2019-06-01T21:29:52.378Z,60.80
2019-06-01T21:32:23.585Z,61.08
2019-06-01T21:34:53.222Z,61.30
2019-06-01T21:37:23.503Z,61.51
2019-06-01T21:39:53.048Z,61.75
2019-06-01T21:42:23.655Z,62.03
2019-06-01T21:44:53.315Z,62.16
2019-06-01T21:47:23.821Z,62.45
2019-06-01T21:49:53.393Z,62.92
2019-06-01T21:52:24.239Z,63.13
2019-06-01T21:54:53.831Z,63.18
2019-06-01T21:57:24.615Z,63.28
2019-06-01T21:59:54.213Z,63.46
2019-06-01T22:02:24.970Z,63.65
2019-06-01T22:04:54.557Z,64.04
2019-06-01T22:07:25.218Z,64.21
2019-06-01T22:09:54.803Z,64.24
2019-06-01T22:12:25.745Z,64.37
2019-06-01T22:14:56.367Z,64.36
2019-06-01T22:17:25.951Z,64.56
2019-06-01T22:19:55.700Z,64.75
2019-06-01T22:22:25.836Z,64.97
2019-06-01T22:24:55.422Z,65.11
2019-06-01T22:27:26.268Z,65.27
2019-06-01T22:29:56.188Z,65.53
2019-06-01T22:32:28.222Z,65.55
2019-06-01T22:34:57.234Z,65.66
2019-06-01T22:37:26.734Z,66.03
2019-06-01T22:39:56.203Z,66.13
2019-06-01T22:42:26.403Z,66.55
2019-06-01T22:44:56.035Z,66.94
2019-06-01T22:47:26.616Z,67.22
2019-06-01T22:49:56.197Z,67.52
2019-06-01T22:52:26.939Z,67.77
2019-06-01T22:54:56.525Z,67.86
2019-06-01T22:57:26.552Z,67.87
2019-06-01T22:59:56.486Z,68.14
2019-06-01T23:02:26.298Z,68.21
2019-06-01T23:04:55.782Z,68.28
2019-06-01T23:07:25.275Z,68.24
2019-06-01T23:09:54.718Z,68.23
2019-06-01T23:12:25.424Z,68.29
2019-06-01T23:14:55.365Z,68.42
2019-06-01T23:17:25.916Z,68.38
2019-06-01T23:19:56.646Z,68.56
2019-06-01T23:22:26.446Z,68.59
2019-06-01T23:24:55.887Z,68.69
2019-06-01T23:27:26.204Z,68.75
2019-06-01T23:29:56.088Z,68.74
2019-06-01T23:32:26.448Z,68.92
2019-06-01T23:34:56.036Z,68.95
2019-06-01T23:37:26.662Z,69.12
2019-06-01T23:39:56.273Z,69.13
2019-06-01T23:42:26.744Z,69.09
2019-06-01T23:44:56.627Z,69.21
2019-06-01T23:47:27.276Z,69.32
2019-06-01T23:49:56.970Z,69.30
2019-06-01T23:52:27.524Z,69.40
2019-06-01T23:54:57.416Z,69.41
2019-06-01T23:57:27.940Z,69.47
2019-06-01T23:59:57.554Z,69.50
